sensor_id;sensor_type;location;lat;lon;timestamp;pressure;altitude;pressure_sealevel;temperature;humidity
55070;BME280;40967;52.070;8.596;2022-07-10T00:01:02;101423.00;;;14.80;64.97
55070;BME280;40967;52.070;8.596;2022-07-10T00:03:28;101426.84;;;14.79;65.00
55070;BME280;40967;52.070;8.596;2022-07-10T00:05:53;101426.84;;;14.74;65.07
55070;BME280;40967;52.070;8.596;2022-07-10T00:08:18;101421.66;;;14.73;65.22
55070;BME280;40967;52.070;8.596;2022-07-10T00:10:44;101421.13;;;14.71;65.01
55070;BME280;40967;52.070;8.596;2022-07-10T00:13:09;101413.22;;;14.69;64.94
55070;BME280;40967;52.070;8.596;2022-07-10T00:15:35;101415.38;;;14.67;64.93
55070;BME280;40967;52.070;8.596;2022-07-10T00:18:00;101407.47;;;14.66;64.99
55070;BME280;40967;52.070;8.596;2022-07-10T00:20:25;101411.28;;;14.65;64.79
55070;BME280;40967;52.070;8.596;2022-07-10T00:22:51;101391.09;;;14.61;64.62
55070;BME280;40967;52.070;8.596;2022-07-10T00:25:16;101406.63;;;14.75;64.21
55070;BME280;40967;52.070;8.596;2022-07-10T00:27:42;101401.16;;;14.75;64.48
55070;BME280;40967;52.070;8.596;2022-07-10T00:30:11;101399.81;;;14.73;64.68
55070;BME280;40967;52.070;8.596;2022-07-10T00:32:36;101399.53;;;14.74;64.55
55070;BME280;40967;52.070;8.596;2022-07-10T00:35:03;101401.72;;;14.72;65.17
55070;BME280;40967;52.070;8.596;2022-07-10T00:37:29;101400.91;;;14.67;65.38
55070;BME280;40967;52.070;8.596;2022-07-10T00:39:54;101404.47;;;14.62;65.60
55070;BME280;40967;52.070;8.596;2022-07-10T00:42:20;101405.00;;;14.59;65.78
55070;BME280;40967;52.070;8.596;2022-07-10T00:44:45;101405.81;;;14.60;66.18
55070;BME280;40967;52.070;8.596;2022-07-10T00:47:11;101394.09;;;14.54;66.53
55070;BME280;40967;52.070;8.596;2022-07-10T00:49:38;101404.22;;;14.54;66.70
55070;BME280;40967;52.070;8.596;2022-07-10T00:52:07;101409.13;;;14.52;66.83
55070;BME280;40967;52.070;8.596;2022-07-10T00:54:34;101411.56;;;14.48;67.03
55070;BME280;40967;52.070;8.596;2022-07-10T00:56:59;101406.91;;;14.44;67.48
55070;BME280;40967;52.070;8.596;2022-07-10T00:59:26;101422.75;;;14.37;67.76
55070;BME280;40967;52.070;8.596;2022-07-10T01:01:52;101418.69;;;14.34;67.89
55070;BME280;40967;52.070;8.596;2022-07-10T01:04:18;101404.19;;;14.34;68.00
55070;BME280;40967;52.070;8.596;2022-07-10T01:06:44;101394.94;;;14.35;68.06
55070;BME280;40967;52.070;8.596;2022-07-10T01:09:09;101391.38;;;14.34;68.17
55070;BME280;40967;52.070;8.596;2022-07-10T01:11:35;101387.03;;;14.33;68.13
55070;BME280;40967;52.070;8.596;2022-07-10T01:14:02;101382.06;;;14.35;68.08
55070;BME280;40967;52.070;8.596;2022-07-10T01:16:28;101390.53;;;14.34;68.41
55070;BME280;40967;52.070;8.596;2022-07-10T01:18:55;101386.47;;;14.31;68.25
55070;BME280;40967;52.070;8.596;2022-07-10T01:21:31;101384.00;;;14.30;68.43
55070;BME280;40967;52.070;8.596;2022-07-10T01:23:57;101386.41;;;14.21;68.76
55070;BME280;40967;52.070;8.596;2022-07-10T01:26:24;101392.69;;;14.22;69.40
55070;BME280;40967;52.070;8.596;2022-07-10T01:28:51;101384.22;;;14.23;68.90
55070;BME280;40967;52.070;8.596;2022-07-10T01:31:18;101382.34;;;14.24;69.09
55070;BME280;40967;52.070;8.596;2022-07-10T01:33:44;101371.41;;;14.19;68.90
55070;BME280;40967;52.070;8.596;2022-07-10T01:36:11;101376.88;;;14.24;69.07
55070;BME280;40967;52.070;8.596;2022-07-10T01:38:36;101387.53;;;14.30;68.98
55070;BME280;40967;52.070;8.596;2022-07-10T01:41:02;101388.34;;;14.21;69.43
55070;BME280;40967;52.070;8.596;2022-07-10T01:43:27;101383.16;;;14.14;69.63
55070;BME280;40967;52.070;8.596;2022-07-10T01:45:52;101386.69;;;14.10;70.12
55070;BME280;40967;52.070;8.596;2022-07-10T01:48:18;101387.25;;;14.07;69.83
55070;BME280;40967;52.070;8.596;2022-07-10T01:50:43;101377.94;;;14.03;70.35
55070;BME280;40967;52.070;8.596;2022-07-10T01:53:08;101368.94;;;14.02;70.15
55070;BME280;40967;52.070;8.596;2022-07-10T01:55:34;101361.84;;;14.01;70.30
55070;BME280;40967;52.070;8.596;2022-07-10T01:57:59;101354.50;;;13.97;70.47
55070;BME280;40967;52.070;8.596;2022-07-10T02:00:25;101349.03;;;13.97;70.65
55070;BME280;40967;52.070;8.596;2022-07-10T02:02:50;101353.66;;;13.96;70.63
55070;BME280;40967;52.070;8.596;2022-07-10T02:05:34;101357.22;;;13.97;70.83
55070;BME280;40967;52.070;8.596;2022-07-10T02:08:00;101327.72;;;13.84;70.72
55070;BME280;40967;52.070;8.596;2022-07-10T02:10:28;101348.19;;;14.01;70.49
55070;BME280;40967;52.070;8.596;2022-07-10T02:12:54;101341.66;;;14.02;70.67
55070;BME280;40967;52.070;8.596;2022-07-10T02:15:19;101343.31;;;14.03;70.81
55070;BME280;40967;52.070;8.596;2022-07-10T02:17:44;101339.75;;;14.03;70.62
55070;BME280;40967;52.070;8.596;2022-07-10T02:20:10;101324.19;;;13.98;70.57
55070;BME280;40967;52.070;8.596;2022-07-10T02:22:36;101335.66;;;14.05;70.54
55070;BME280;40967;52.070;8.596;2022-07-10T02:25:01;101340.28;;;14.10;70.56
55070;BME280;40967;52.070;8.596;2022-07-10T02:27:26;101347.09;;;14.02;70.58
55070;BME280;40967;52.070;8.596;2022-07-10T02:29:52;101333.47;;;13.97;70.93
55070;BME280;40967;52.070;8.596;2022-07-10T02:32:18;101335.38;;;13.97;71.06
55070;BME280;40967;52.070;8.596;2022-07-10T02:34:43;101336.75;;;13.94;71.18
55070;BME280;40967;52.070;8.596;2022-07-10T02:37:09;101332.91;;;13.95;70.92
55070;BME280;40967;52.070;8.596;2022-07-10T02:39:34;101330.72;;;13.92;71.27
55070;BME280;40967;52.070;8.596;2022-07-10T02:42:00;101328.28;;;13.91;71.09
55070;BME280;40967;52.070;8.596;2022-07-10T02:44:25;101326.94;;;13.88;71.19
55070;BME280;40967;52.070;8.596;2022-07-10T02:46:50;101316.81;;;13.89;71.38
55070;BME280;40967;52.070;8.596;2022-07-10T02:49:16;101316.53;;;13.90;71.42
55070;BME280;40967;52.070;8.596;2022-07-10T02:51:41;101320.09;;;13.91;71.21
55070;BME280;40967;52.070;8.596;2022-07-10T02:54:06;101322.28;;;13.89;71.50
55070;BME280;40967;52.070;8.596;2022-07-10T02:56:33;101319.00;;;13.87;71.54
55070;BME280;40967;52.070;8.596;2022-07-10T02:58:58;101321.19;;;13.90;71.22
55070;BME280;40967;52.070;8.596;2022-07-10T03:01:24;101322.28;;;13.89;71.32
55070;BME280;40967;52.070;8.596;2022-07-10T03:03:49;101327.44;;;13.85;71.62
55070;BME280;40967;52.070;8.596;2022-07-10T03:06:15;101335.06;;;13.78;72.21
55070;BME280;40967;52.070;8.596;2022-07-10T03:08:40;101330.72;;;13.77;72.45
55070;BME280;40967;52.070;8.596;2022-07-10T03:11:06;101326.06;;;13.73;72.51
55070;BME280;40967;52.070;8.596;2022-07-10T03:13:32;101323.63;;;13.71;72.51
55070;BME280;40967;52.070;8.596;2022-07-10T03:15:57;101322.53;;;13.77;72.49
55070;BME280;40967;52.070;8.596;2022-07-10T03:18:23;101308.06;;;13.77;72.37
55070;BME280;40967;52.070;8.596;2022-07-10T03:20:48;101321.44;;;13.83;72.26
55070;BME280;40967;52.070;8.596;2022-07-10T03:23:14;101318.44;;;13.80;72.22
55070;BME280;40967;52.070;8.596;2022-07-10T03:25:39;101319.00;;;13.82;72.18
55070;BME280;40967;52.070;8.596;2022-07-10T03:28:05;101323.09;;;13.79;72.52
55070;BME280;40967;52.070;8.596;2022-07-10T03:30:30;101328.28;;;13.81;72.38
55070;BME280;40967;52.070;8.596;2022-07-10T03:32:55;101325.28;;;13.77;72.56
55070;BME280;40967;52.070;8.596;2022-07-10T03:35:21;101318.97;;;13.72;73.18
55070;BME280;40967;52.070;8.596;2022-07-10T03:37:46;101322.00;;;13.75;73.00
55070;BME280;40967;52.070;8.596;2022-07-10T03:40:12;101318.16;;;13.71;73.35
55070;BME280;40967;52.070;8.596;2022-07-10T03:42:37;101319.53;;;13.63;73.45
55070;BME280;40967;52.070;8.596;2022-07-10T03:45:03;101331.00;;;13.71;73.46
55070;BME280;40967;52.070;8.596;2022-07-10T03:47:28;101331.53;;;13.73;73.32
55070;BME280;40967;52.070;8.596;2022-07-10T03:49:54;101330.16;;;13.75;73.15
55070;BME280;40967;52.070;8.596;2022-07-10T03:52:20;101337.25;;;13.76;73.41
55070;BME280;40967;52.070;8.596;2022-07-10T03:54:45;101332.63;;;13.77;73.42
55070;BME280;40967;52.070;8.596;2022-07-10T03:57:11;101337.00;;;13.78;72.93
55070;BME280;40967;52.070;8.596;2022-07-10T03:59:55;101340.81;;;13.72;73.53
55070;BME280;40967;52.070;8.596;2022-07-10T04:02:20;101332.06;;;13.69;73.73
55070;BME280;40967;52.070;8.596;2022-07-10T04:04:46;101331.00;;;13.65;74.06
55070;BME280;40967;52.070;8.596;2022-07-10T04:07:11;101337.25;;;13.66;74.19
55070;BME280;40967;52.070;8.596;2022-07-10T04:09:37;101329.06;;;13.61;74.17
55070;BME280;40967;52.070;8.596;2022-07-10T04:12:03;101326.59;;;13.59;74.21
55070;BME280;40967;52.070;8.596;2022-07-10T04:14:28;101329.88;;;13.61;74.33
55070;BME280;40967;52.070;8.596;2022-07-10T04:16:54;101328.78;;;13.62;74.27
55070;BME280;40967;52.070;8.596;2022-07-10T04:19:19;101337.53;;;13.69;73.68
55070;BME280;40967;52.070;8.596;2022-07-10T04:21:46;101335.91;;;13.68;73.65
55070;BME280;40967;52.070;8.596;2022-07-10T04:24:12;101333.72;;;13.65;74.42
55070;BME280;40967;52.070;8.596;2022-07-10T04:26:37;101321.69;;;13.61;74.48
55070;BME280;40967;52.070;8.596;2022-07-10T04:29:02;101324.16;;;13.58;74.70
55070;BME280;40967;52.070;8.596;2022-07-10T04:31:28;101328.22;;;13.55;74.62
55070;BME280;40967;52.070;8.596;2022-07-10T04:33:53;101324.16;;;13.58;74.60
55070;BME280;40967;52.070;8.596;2022-07-10T04:36:20;101325.50;;;13.60;74.50
55070;BME280;40967;52.070;8.596;2022-07-10T04:38:45;101323.59;;;13.61;74.60
55070;BME280;40967;52.070;8.596;2022-07-10T04:41:11;101325.25;;;13.67;74.38
55070;BME280;40967;52.070;8.596;2022-07-10T04:43:36;101322.78;;;13.60;74.77
55070;BME280;40967;52.070;8.596;2022-07-10T04:46:02;101326.59;;;13.59;74.51
55070;BME280;40967;52.070;8.596;2022-07-10T04:48:27;101325.25;;;13.62;74.48
55070;BME280;40967;52.070;8.596;2022-07-10T04:50:52;101325.50;;;13.60;74.46
55070;BME280;40967;52.070;8.596;2022-07-10T04:53:18;101333.16;;;13.63;74.61
55070;BME280;40967;52.070;8.596;2022-07-10T04:55:43;101337.25;;;13.66;74.91
55070;BME280;40967;52.070;8.596;2022-07-10T04:58:08;101330.44;;;13.68;74.61
55070;BME280;40967;52.070;8.596;2022-07-10T05:00:34;101328.00;;;13.67;74.37
55070;BME280;40967;52.070;8.596;2022-07-10T05:02:59;101333.72;;;13.71;74.34
55070;BME280;40967;52.070;8.596;2022-07-10T05:05:24;101337.25;;;13.71;74.53
55070;BME280;40967;52.070;8.596;2022-07-10T05:07:50;101326.06;;;13.62;74.89
55070;BME280;40967;52.070;8.596;2022-07-10T05:10:15;101332.63;;;13.66;74.79
55070;BME280;40967;52.070;8.596;2022-07-10T05:12:40;101339.69;;;13.67;74.72
55070;BME280;40967;52.070;8.596;2022-07-10T05:15:06;101335.91;;;13.68;75.11
55070;BME280;40967;52.070;8.596;2022-07-10T05:17:32;101333.72;;;13.65;75.09
55070;BME280;40967;52.070;8.596;2022-07-10T05:19:57;101339.69;;;13.67;75.15
55070;BME280;40967;52.070;8.596;2022-07-10T05:22:23;101333.72;;;13.65;75.27
55070;BME280;40967;52.070;8.596;2022-07-10T05:24:49;101345.41;;;13.66;75.55
55070;BME280;40967;52.070;8.596;2022-07-10T05:27:14;101342.69;;;13.66;75.31
55070;BME280;40967;52.070;8.596;2022-07-10T05:29:43;101350.59;;;13.67;75.62
55070;BME280;40967;52.070;8.596;2022-07-10T05:32:08;101345.16;;;13.67;75.86
55070;BME280;40967;52.070;8.596;2022-07-10T05:34:33;101349.53;;;13.74;76.03
55070;BME280;40967;52.070;8.596;2022-07-10T05:36:59;101335.91;;;13.79;75.65
55070;BME280;40967;52.070;8.596;2022-07-10T05:39:24;101335.34;;;13.87;75.57
55070;BME280;40967;52.070;8.596;2022-07-10T05:41:52;101336.47;;;13.86;75.24
55070;BME280;40967;52.070;8.596;2022-07-10T05:44:18;101339.19;;;13.86;75.75
55070;BME280;40967;52.070;8.596;2022-07-10T05:46:45;101338.63;;;13.79;75.99
55070;BME280;40967;52.070;8.596;2022-07-10T05:49:11;101349.53;;;13.84;75.99
55070;BME280;40967;52.070;8.596;2022-07-10T05:51:36;101337.00;;;13.83;75.83
55070;BME280;40967;52.070;8.596;2022-07-10T05:54:01;101350.09;;;13.91;76.08
55070;BME280;40967;52.070;8.596;2022-07-10T05:56:27;101338.13;;;13.97;75.69
55070;BME280;40967;52.070;8.596;2022-07-10T05:58:52;101333.47;;;13.92;75.50
55070;BME280;40967;52.070;8.596;2022-07-10T06:01:20;101343.56;;;14.07;75.45
55070;BME280;40967;52.070;8.596;2022-07-10T06:03:45;101350.66;;;14.08;75.49
55070;BME280;40967;52.070;8.596;2022-07-10T06:06:11;101352.31;;;14.14;75.12
55070;BME280;40967;52.070;8.596;2022-07-10T06:08:40;101362.13;;;14.15;75.42
55070;BME280;40967;52.070;8.596;2022-07-10T06:11:05;101353.94;;;14.15;75.12
55070;BME280;40967;52.070;8.596;2022-07-10T06:13:31;101355.84;;;14.24;74.76
55070;BME280;40967;52.070;8.596;2022-07-10T06:15:56;101357.25;;;14.27;74.52
55070;BME280;40967;52.070;8.596;2022-07-10T06:18:21;101358.06;;;14.27;74.66
55070;BME280;40967;52.070;8.596;2022-07-10T06:20:47;101349.88;;;14.32;74.26
55070;BME280;40967;52.070;8.596;2022-07-10T06:23:12;101362.72;;;14.42;74.20
55070;BME280;40967;52.070;8.596;2022-07-10T06:25:37;101343.31;;;14.38;74.42
55070;BME280;40967;52.070;8.596;2022-07-10T06:28:03;101345.78;;;14.35;74.22
55070;BME280;40967;52.070;8.596;2022-07-10T06:30:28;101351.78;;;14.42;74.10
55070;BME280;40967;52.070;8.596;2022-07-10T06:32:54;101349.84;;;14.47;73.79
55070;BME280;40967;52.070;8.596;2022-07-10T06:35:19;101358.31;;;14.51;73.71
55070;BME280;40967;52.070;8.596;2022-07-10T06:37:44;101355.03;;;14.59;73.44
55070;BME280;40967;52.070;8.596;2022-07-10T06:40:13;101356.94;;;14.63;73.23
55070;BME280;40967;52.070;8.596;2022-07-10T06:42:39;101362.13;;;14.65;72.87
55070;BME280;40967;52.070;8.596;2022-07-10T06:45:05;101361.03;;;14.66;72.58
55070;BME280;40967;52.070;8.596;2022-07-10T06:47:30;101343.00;;;14.60;72.68
55070;BME280;40967;52.070;8.596;2022-07-10T06:50:14;101344.66;;;14.66;72.72
55070;BME280;40967;52.070;8.596;2022-07-10T06:52:39;101352.53;;;14.77;72.53
55070;BME280;40967;52.070;8.596;2022-07-10T06:55:05;101346.78;;;14.79;72.19
55070;BME280;40967;52.070;8.596;2022-07-10T06:57:31;101351.19;;;14.75;71.87
55070;BME280;40967;52.070;8.596;2022-07-10T06:59:57;101351.19;;;14.75;71.65
55070;BME280;40967;52.070;8.596;2022-07-10T07:02:22;101344.59;;;14.81;71.48
55070;BME280;40967;52.070;8.596;2022-07-10T07:04:48;101347.88;;;14.83;71.28
55070;BME280;40967;52.070;8.596;2022-07-10T07:07:14;101345.13;;;14.88;71.19
55070;BME280;40967;52.070;8.596;2022-07-10T07:09:40;101344.53;;;15.01;70.72
55070;BME280;40967;52.070;8.596;2022-07-10T07:12:06;101349.97;;;15.16;70.39
55070;BME280;40967;52.070;8.596;2022-07-10T07:14:32;101355.03;;;15.38;69.68
55070;BME280;40967;52.070;8.596;2022-07-10T07:16:58;101346.88;;;15.43;69.34
55070;BME280;40967;52.070;8.596;2022-07-10T07:19:34;101329.56;;;15.52;69.05
55070;BME280;40967;52.070;8.596;2022-07-10T07:22:19;101352.97;;;15.73;68.33
55070;BME280;40967;52.070;8.596;2022-07-10T07:25:04;101345.41;;;15.55;68.04
55070;BME280;40967;52.070;8.596;2022-07-10T07:27:30;101344.88;;;15.53;67.91
55070;BME280;40967;52.070;8.596;2022-07-10T07:29:55;101344.63;;;15.55;68.11
55070;BME280;40967;52.070;8.596;2022-07-10T07:32:21;101342.16;;;15.48;68.19
55070;BME280;40967;52.070;8.596;2022-07-10T07:34:46;101348.47;;;15.49;68.22
55070;BME280;40967;52.070;8.596;2022-07-10T07:37:11;101347.91;;;15.47;67.90
55070;BME280;40967;52.070;8.596;2022-07-10T07:39:37;101345.44;;;15.50;68.08
55070;BME280;40967;52.070;8.596;2022-07-10T07:42:03;101348.69;;;15.57;68.03
55070;BME280;40967;52.070;8.596;2022-07-10T07:44:28;101349.22;;;15.59;67.69
55070;BME280;40967;52.070;8.596;2022-07-10T07:46:55;101351.72;;;15.56;67.68
55070;BME280;40967;52.070;8.596;2022-07-10T07:49:20;101348.94;;;15.61;67.70
55070;BME280;40967;52.070;8.596;2022-07-10T07:51:46;101346.41;;;15.69;67.48
55070;BME280;40967;52.070;8.596;2022-07-10T07:54:12;101355.47;;;15.70;67.24
55070;BME280;40967;52.070;8.596;2022-07-10T07:56:38;101349.09;;;15.79;66.97
55070;BME280;40967;52.070;8.596;2022-07-10T07:59:03;101355.03;;;15.91;66.69
55070;BME280;40967;52.070;8.596;2022-07-10T08:01:31;101341.94;;;15.83;66.27
55070;BME280;40967;52.070;8.596;2022-07-10T08:03:56;101338.44;;;15.78;66.23
55070;BME280;40967;52.070;8.596;2022-07-10T08:06:22;101340.88;;;15.79;66.01
55070;BME280;40967;52.070;8.596;2022-07-10T08:08:47;101336.56;;;15.73;66.15
55070;BME280;40967;52.070;8.596;2022-07-10T08:11:12;101347.94;;;15.90;66.43
55070;BME280;40967;52.070;8.596;2022-07-10T08:13:38;101337.69;;;16.06;66.08
55070;BME280;40967;52.070;8.596;2022-07-10T08:16:03;101337.97;;;16.33;65.49
55070;BME280;40967;52.070;8.596;2022-07-10T08:18:29;101337.56;;;16.78;65.63
55070;BME280;40967;52.070;8.596;2022-07-10T08:20:54;101335.44;;;16.99;63.56
55070;BME280;40967;52.070;8.596;2022-07-10T08:23:20;101338.72;;;16.96;62.29
55070;BME280;40967;52.070;8.596;2022-07-10T08:25:45;101340.50;;;17.11;62.55
55070;BME280;40967;52.070;8.596;2022-07-10T08:28:11;101330.06;;;17.31;61.74
55070;BME280;40967;52.070;8.596;2022-07-10T08:30:37;101333.75;;;17.64;60.98
55070;BME280;40967;52.070;8.596;2022-07-10T08:33:03;101329.00;;;17.88;60.07
55070;BME280;40967;52.070;8.596;2022-07-10T08:35:29;101334.22;;;17.89;58.97
55070;BME280;40967;52.070;8.596;2022-07-10T08:37:55;101327.75;;;17.80;58.05
55070;BME280;40967;52.070;8.596;2022-07-10T08:40:21;101327.38;;;17.87;57.55
55070;BME280;40967;52.070;8.596;2022-07-10T08:42:47;101313.78;;;17.95;57.08
55070;BME280;40967;52.070;8.596;2022-07-10T08:45:13;101318.56;;;18.22;57.04
55070;BME280;40967;52.070;8.596;2022-07-10T08:47:40;101322.13;;;18.55;56.51
55070;BME280;40967;52.070;8.596;2022-07-10T08:50:23;101321.16;;;18.91;55.39
55070;BME280;40967;52.070;8.596;2022-07-10T08:55:24;101320.84;;;19.34;53.92
55070;BME280;40967;52.070;8.596;2022-07-10T08:57:51;101324.28;;;19.39;53.15
55070;BME280;40967;52.070;8.596;2022-07-10T09:00:17;101317.28;;;19.33;52.89
55070;BME280;40967;52.070;8.596;2022-07-10T09:02:42;101312.56;;;19.20;52.68
55070;BME280;40967;52.070;8.596;2022-07-10T09:05:08;101308.13;;;18.97;52.40
55070;BME280;40967;52.070;8.596;2022-07-10T09:07:37;101311.25;;;18.77;52.64
55070;BME280;40967;52.070;8.596;2022-07-10T09:10:07;101308.59;;;18.72;52.49
55070;BME280;40967;52.070;8.596;2022-07-10T09:12:58;101305.56;;;18.87;52.43
55070;BME280;40967;52.070;8.596;2022-07-10T09:15:25;101305.25;;;19.02;51.80
55070;BME280;40967;52.070;8.596;2022-07-10T09:17:56;101276.94;;;18.88;51.61
55070;BME280;40967;52.070;8.596;2022-07-10T09:20:33;101301.47;;;19.25;51.67
55070;BME280;40967;52.070;8.596;2022-07-10T09:23:14;101306.56;;;19.45;50.70
55070;BME280;40967;52.070;8.596;2022-07-10T09:25:40;101299.16;;;19.68;50.23
55070;BME280;40967;52.070;8.596;2022-07-10T09:28:05;101306.84;;;19.79;49.90
55070;BME280;40967;52.070;8.596;2022-07-10T09:30:43;101292.75;;;19.81;49.58
55070;BME280;40967;52.070;8.596;2022-07-10T09:49:02;101309.31;;;19.04;51.28
55070;BME280;40967;52.070;8.596;2022-07-10T09:51:50;101307.72;;;18.90;51.79
55070;BME280;40967;52.070;8.596;2022-07-10T09:54:15;101313.78;;;18.60;52.56
55070;BME280;40967;52.070;8.596;2022-07-10T09:56:45;101313.19;;;18.31;53.39
55070;BME280;40967;52.070;8.596;2022-07-10T09:59:16;101315.25;;;18.06;53.93
55070;BME280;40967;52.070;8.596;2022-07-10T10:01:44;101315.84;;;18.03;54.34
55070;BME280;40967;52.070;8.596;2022-07-10T10:04:11;101316.59;;;18.09;54.51
55070;BME280;40967;52.070;8.596;2022-07-10T10:06:38;101315.31;;;18.20;54.37
55070;BME280;40967;52.070;8.596;2022-07-10T10:11:44;101305.28;;;18.10;55.18
55070;BME280;40967;52.070;8.596;2022-07-10T10:14:11;101316.63;;;17.90;55.90
55070;BME280;40967;52.070;8.596;2022-07-10T10:16:39;101309.22;;;17.91;56.41
55070;BME280;40967;52.070;8.596;2022-07-10T10:19:06;101296.91;;;18.02;56.17
55070;BME280;40967;52.070;8.596;2022-07-10T10:21:53;101306.94;;;18.11;56.35
55070;BME280;40967;52.070;8.596;2022-07-10T10:24:20;101308.81;;;18.30;56.38
55070;BME280;40967;52.070;8.596;2022-07-10T10:26:46;101312.94;;;18.46;55.88
55070;BME280;40967;52.070;8.596;2022-07-10T10:29:12;101307.56;;;18.68;55.48
55070;BME280;40967;52.070;8.596;2022-07-10T10:31:38;101309.53;;;18.81;55.28
55070;BME280;40967;52.070;8.596;2022-07-10T10:34:05;101306.06;;;18.62;55.67
55070;BME280;40967;52.070;8.596;2022-07-10T10:39:08;101309.31;;;18.77;55.61
55070;BME280;40967;52.070;8.596;2022-07-10T10:41:54;101320.53;;;18.67;55.70
55070;BME280;40967;52.070;8.596;2022-07-10T10:44:20;101318.59;;;18.36;56.71
55070;BME280;40967;52.070;8.596;2022-07-10T10:47:00;101324.47;;;18.16;57.44
55070;BME280;40967;52.070;8.596;2022-07-10T10:49:47;101326.91;;;17.98;58.44
55070;BME280;40967;52.070;8.596;2022-07-10T10:52:16;101321.28;;;17.90;59.27
55070;BME280;40967;52.070;8.596;2022-07-10T10:59:57;101321.84;;;17.73;60.59
55070;BME280;40967;52.070;8.596;2022-07-10T11:04:50;101301.31;;;18.03;60.45
55070;BME280;40967;52.070;8.596;2022-07-10T11:07:54;101309.59;;;18.17;60.44
55070;BME280;40967;52.070;8.596;2022-07-10T11:13:12;101301.06;;;18.18;60.05
55070;BME280;40967;52.070;8.596;2022-07-10T11:18:11;101314.31;;;17.97;61.77
55070;BME280;40967;52.070;8.596;2022-07-10T11:29:04;101341.84;;;17.55;69.26
55070;BME280;40967;52.070;8.596;2022-07-10T11:31:33;101337.84;;;17.24;71.27
55070;BME280;40967;52.070;8.596;2022-07-10T11:34:10;101328.47;;;17.07;72.73
55070;BME280;40967;52.070;8.596;2022-07-10T11:36:38;101333.38;;;16.86;74.18
55070;BME280;40967;52.070;8.596;2022-07-10T11:39:06;101321.22;;;16.68;75.58
55070;BME280;40967;52.070;8.596;2022-07-10T11:41:32;101326.09;;;16.48;76.60
55070;BME280;40967;52.070;8.596;2022-07-10T11:43:59;101332.25;;;16.35;77.47
55070;BME280;40967;52.070;8.596;2022-07-10T11:46:27;101327.38;;;16.27;77.95
55070;BME280;40967;52.070;8.596;2022-07-10T11:48:53;101308.44;;;16.30;78.35
55070;BME280;40967;52.070;8.596;2022-07-10T11:51:27;101329.38;;;16.50;78.73
55070;BME280;40967;52.070;8.596;2022-07-10T11:56:19;101317.00;;;16.57;77.64
55070;BME280;40967;52.070;8.596;2022-07-10T11:59:02;101328.78;;;16.81;77.03
55070;BME280;40967;52.070;8.596;2022-07-10T12:01:29;101326.69;;;16.97;76.06
55070;BME280;40967;52.070;8.596;2022-07-10T12:06:24;101319.59;;;16.91;74.85
55070;BME280;40967;52.070;8.596;2022-07-10T12:08:50;101319.13;;;16.84;75.29
55070;BME280;40967;52.070;8.596;2022-07-10T12:11:17;101326.63;;;17.02;74.82
55070;BME280;40967;52.070;8.596;2022-07-10T12:13:48;101323.44;;;17.14;74.31
55070;BME280;40967;52.070;8.596;2022-07-10T12:16:14;101325.78;;;17.25;74.03
55070;BME280;40967;52.070;8.596;2022-07-10T12:18:41;101323.91;;;17.21;73.08
55070;BME280;40967;52.070;8.596;2022-07-10T12:21:08;101323.97;;;17.16;73.21
55070;BME280;40967;52.070;8.596;2022-07-10T12:23:34;101334.72;;;17.12;73.28
55070;BME280;40967;52.070;8.596;2022-07-10T12:26:00;101323.81;;;17.07;73.24
55070;BME280;40967;52.070;8.596;2022-07-10T12:28:28;101334.72;;;17.12;73.43
55070;BME280;40967;52.070;8.596;2022-07-10T12:30:54;101316.56;;;17.16;73.12
55070;BME280;40967;52.070;8.596;2022-07-10T12:33:20;101330.28;;;17.16;72.66
55070;BME280;40967;52.070;8.596;2022-07-10T12:38:19;101336.53;;;17.22;72.74
55070;BME280;40967;52.070;8.596;2022-07-10T12:40:45;101331.91;;;17.17;73.13
55070;BME280;40967;52.070;8.596;2022-07-10T12:43:11;101325.78;;;17.25;73.46
55070;BME280;40967;52.070;8.596;2022-07-10T12:45:37;101331.91;;;17.17;73.68
55070;BME280;40967;52.070;8.596;2022-07-10T12:48:04;101324.34;;;17.09;73.68
55070;BME280;40967;52.070;8.596;2022-07-10T12:50:31;101320.06;;;17.22;73.48
55070;BME280;40967;52.070;8.596;2022-07-10T12:53:10;101320.78;;;17.51;72.94
55070;BME280;40967;52.070;8.596;2022-07-10T12:55:38;101311.47;;;17.70;72.02
55070;BME280;40967;52.070;8.596;2022-07-10T12:58:10;101311.13;;;17.90;71.80
55070;BME280;40967;52.070;8.596;2022-07-10T13:00:44;101310.94;;;18.19;71.17
55070;BME280;40967;52.070;8.596;2022-07-10T13:03:16;101308.66;;;18.40;70.08
55070;BME280;40967;52.070;8.596;2022-07-10T13:05:43;101305.44;;;18.65;69.53
55070;BME280;40967;52.070;8.596;2022-07-10T13:08:15;101298.63;;;19.03;68.37
55070;BME280;40967;52.070;8.596;2022-07-10T13:10:43;101300.56;;;19.16;66.97
55070;BME280;40967;52.070;8.596;2022-07-10T13:13:09;101304.41;;;19.15;66.20
55070;BME280;40967;52.070;8.596;2022-07-10T13:15:36;101307.28;;;19.10;65.58
55070;BME280;40967;52.070;8.596;2022-07-10T13:18:06;101295.28;;;19.06;65.27
55070;BME280;40967;52.070;8.596;2022-07-10T13:20:32;101308.81;;;19.16;64.97
55070;BME280;40967;52.070;8.596;2022-07-10T13:22:58;101300.53;;;19.30;64.54
55070;BME280;40967;52.070;8.596;2022-07-10T13:25:23;101303.81;;;19.45;63.91
55070;BME280;40967;52.070;8.596;2022-07-10T13:27:50;101304.31;;;19.47;63.81
55070;BME280;40967;52.070;8.596;2022-07-10T13:30:16;101299.72;;;19.29;64.05
55070;BME280;40967;52.070;8.596;2022-07-10T13:32:42;101293.94;;;19.44;63.70
55070;BME280;40967;52.070;8.596;2022-07-10T13:35:07;101297.34;;;19.63;63.30
55070;BME280;40967;52.070;8.596;2022-07-10T13:37:34;101297.81;;;19.65;63.50
55070;BME280;40967;52.070;8.596;2022-07-10T13:39:59;101302.78;;;19.77;63.73
55070;BME280;40967;52.070;8.596;2022-07-10T13:42:24;101306.34;;;19.77;64.20